Time;durP1;ratioP1;P1;durP2;ratioP2;P2;SDS_P1;SDS_P2;PMS_P1;PMS_P2;Temp;Humidity;BMP_temperature;BMP_pressure;BME280_temperature;BME280_humidity;BME280_pressure;Samples;Min_cycle;Max_cycle;Signal;HPM_P1;HPM_P2
2023/07/07 00:02:10;;;;;;;4.38;1.88;;;16.30;92.30;;;;;;5013745;28;20038;-47
2023/07/07 00:04:37;;;;;;;4.65;2.08;;;16.20;92.40;;;;;;5013897;28;20045;-50
2023/07/07 00:07:04;;;;;;;4.63;1.90;;;16.20;92.40;;;;;;5013623;28;20065;-49
2023/07/07 00:09:31;;;;;;;4.20;1.90;;;16.20;92.30;;;;;;5014091;28;20124;-46
2023/07/07 00:12:00;;;;;;;6.20;2.05;;;16.20;92.50;;;;;;5013751;28;20033;-50
2023/07/07 00:14:26;;;;;;;3.88;2.03;;;16.10;92.50;;;;;;5014006;28;20042;-46
2023/07/07 00:17:01;;;;;;;3.25;2.05;;;16.10;92.60;;;;;;5014038;28;20042;-47
2023/07/07 00:19:28;;;;;;;8.15;2.58;;;16.10;92.60;;;;;;5014036;28;20042;-52
2023/07/07 00:21:58;;;;;;;3.40;1.90;;;16.10;92.70;;;;;;5013560;28;20466;-48
2023/07/07 00:24:25;;;;;;;4.57;1.90;;;16.10;92.70;;;;;;5013806;28;20038;-51
2023/07/07 00:26:51;;;;;;;4.07;2.17;;;16.00;92.90;;;;;;5013818;28;20182;-50
2023/07/07 00:29:18;;;;;;;5.18;2.00;;;16.00;93.00;;;;;;5013412;28;20418;-48
2023/07/07 00:31:45;;;;;;;2.67;2.00;;;16.00;92.90;;;;;;5013531;28;20480;-50
2023/07/07 00:34:15;;;;;;;4.30;2.50;;;16.00;93.00;;;;;;5013851;28;20497;-48
2023/07/07 00:36:42;;;;;;;4.47;2.05;;;15.90;93.10;;;;;;5028212;28;20041;-49
2023/07/07 00:39:09;;;;;;;6.45;2.17;;;15.90;93.20;;;;;;5037359;28;20444;-46
2023/07/07 00:41:35;;;;;;;4.47;2.30;;;15.80;93.30;;;;;;5037432;28;20103;-50
2023/07/07 00:44:02;;;;;;;4.88;2.30;;;15.80;93.30;;;;;;5036981;28;20051;-45
2023/07/07 00:46:29;;;;;;;6.30;2.40;;;15.80;93.40;;;;;;5052568;28;20052;-49
2023/07/07 00:48:56;;;;;;;5.40;2.60;;;15.80;93.40;;;;;;5037201;28;20472;-44
2023/07/07 00:51:23;;;;;;;5.10;2.38;;;15.70;93.50;;;;;;5037069;28;20033;-48
2023/07/07 00:53:50;;;;;;;5.25;2.30;;;15.70;93.50;;;;;;5035571;28;20107;-45
2023/07/07 00:56:17;;;;;;;4.72;2.42;;;15.70;93.90;;;;;;5036897;28;20053;-45
2023/07/07 00:58:43;;;;;;;3.95;2.15;;;15.60;93.80;;;;;;5052162;28;20051;-50
2023/07/07 01:01:14;;;;;;;4.78;2.20;;;15.60;93.90;;;;;;5036728;28;20099;-48
2023/07/07 01:03:41;;;;;;;5.03;2.28;;;15.60;94.00;;;;;;5036705;28;20121;-45
2023/07/07 01:06:07;;;;;;;5.97;2.10;;;15.60;94.00;;;;;;5035509;28;20045;-50
2023/07/07 01:08:34;;;;;;;4.28;2.10;;;15.60;94.00;;;;;;5036785;28;20044;-48
2023/07/07 01:11:01;;;;;;;5.55;2.40;;;15.50;94.10;;;;;;5036485;28;20033;-45
2023/07/07 01:13:28;;;;;;;4.78;2.20;;;15.50;94.20;;;;;;5036820;28;20048;-48
2023/07/07 01:15:55;;;;;;;4.35;2.33;;;15.50;94.20;;;;;;5035376;28;20056;-48
2023/07/07 01:18:22;;;;;;;4.13;2.42;;;15.40;94.60;;;;;;5051788;28;20122;-47
2023/07/07 01:21:00;;;;;;;4.78;2.38;;;15.40;94.50;;;;;;5036788;28;20052;-45
2023/07/07 01:23:27;;;;;;;6.60;2.70;;;15.40;94.50;;;;;;5034940;28;20052;-49
2023/07/07 01:25:55;;;;;;;3.83;2.42;;;15.30;94.80;;;;;;5051747;28;20045;-50
2023/07/07 01:28:22;;;;;;;3.95;2.50;;;15.30;94.70;;;;;;5034920;28;20042;-47
2023/07/07 01:30:49;;;;;;;5.30;2.58;;;15.30;94.80;;;;;;5051807;28;20055;-47
2023/07/07 01:33:15;;;;;;;5.90;2.55;;;15.30;94.70;;;;;;5036253;28;20045;-51
2023/07/07 01:35:42;;;;;;;4.93;2.65;;;15.20;94.70;;;;;;5034903;28;20075;-47
2023/07/07 01:38:09;;;;;;;6.47;2.50;;;15.20;94.90;;;;;;5036087;28;20456;-46
2023/07/07 01:40:36;;;;;;;6.75;2.50;;;15.20;94.90;;;;;;5036243;28;20485;-47
2023/07/07 01:43:03;;;;;;;5.95;2.25;;;15.10;95.10;;;;;;5034557;28;20050;-49
2023/07/07 01:45:29;;;;;;;4.25;2.20;;;15.10;95.30;;;;;;5050880;28;20050;-49
2023/07/07 01:47:56;;;;;;;4.47;2.45;;;15.10;95.40;;;;;;5034693;28;20049;-46
2023/07/07 01:50:23;;;;;;;4.05;2.35;;;15.10;95.50;;;;;;5036058;28;20037;-47
2023/07/07 01:52:50;;;;;;;5.38;2.50;;;15.00;95.50;;;;;;5034459;28;20069;-48
2023/07/07 01:55:17;;;;;;;4.47;2.70;;;15.10;95.40;;;;;;5035911;28;20045;-50
2023/07/07 01:57:45;;;;;;;5.75;2.33;;;15.10;95.50;;;;;;5035571;28;20416;-45
2023/07/07 02:00:11;;;;;;;7.90;2.83;;;15.00;95.40;;;;;;5034603;28;20529;-53
2023/07/07 02:02:44;;;;;;;5.70;2.30;;;15.00;95.70;;;;;;5035922;28;20053;-45
2023/07/07 02:05:11;;;;;;;5.38;2.50;;;15.00;95.50;;;;;;5035483;28;20030;-47
2023/07/07 02:07:38;;;;;;;5.47;2.58;;;14.90;95.70;;;;;;5034349;28;20045;-48
2023/07/07 02:10:04;;;;;;;4.32;2.70;;;14.90;95.80;;;;;;5035238;28;20116;-50
2023/07/07 02:12:31;;;;;;;4.15;2.35;;;14.90;95.90;;;;;;5034130;28;20044;-44
2023/07/07 02:14:58;;;;;;;5.47;2.40;;;14.90;95.80;;;;;;5035420;28;20048;-46
2023/07/07 02:17:28;;;;;;;5.38;2.72;;;14.90;95.90;;;;;;5050925;28;20473;-45
2023/07/07 02:19:55;;;;;;;4.75;2.40;;;14.90;95.90;;;;;;5035300;28;20056;-47
2023/07/07 02:22:22;;;;;;;5.20;2.65;;;14.80;96.00;;;;;;5035436;28;20045;-48
2023/07/07 02:24:49;;;;;;;4.47;2.67;;;14.80;96.00;;;;;;5035492;28;20038;-50
2023/07/07 02:27:15;;;;;;;5.90;2.45;;;14.80;96.00;;;;;;5034067;28;20041;-50
2023/07/07 02:29:43;;;;;;;7.35;2.47;;;14.70;96.10;;;;;;5035281;28;20488;-51
2023/07/07 02:32:09;;;;;;;4.78;2.38;;;14.70;96.30;;;;;;5050224;28;20045;-47
2023/07/07 02:34:36;;;;;;;5.18;2.33;;;14.70;96.30;;;;;;5035412;28;20059;-48
2023/07/07 02:37:06;;;;;;;3.60;2.15;;;14.70;96.30;;;;;;5035170;28;20052;-43
2023/07/07 02:39:32;;;;;;;5.32;2.30;;;14.70;96.50;;;;;;5035103;28;20045;-50
2023/07/07 02:41:59;;;;;;;4.88;2.20;;;14.70;96.40;;;;;;5035106;28;20046;-50
2023/07/07 02:44:26;;;;;;;5.05;2.40;;;14.60;96.30;;;;;;5034791;28;20045;-46
2023/07/07 02:46:53;;;;;;;4.90;2.45;;;14.70;96.20;;;;;;5034424;28;20041;-48
2023/07/07 02:49:20;;;;;;;5.28;2.53;;;14.70;96.40;;;;;;5033517;28;20469;-45
2023/07/07 02:51:47;;;;;;;3.65;2.22;;;14.70;96.20;;;;;;5035036;28;20099;-46
2023/07/07 02:54:14;;;;;;;8.55;2.38;;;14.70;96.00;;;;;;5034647;28;20045;-46
2023/07/07 02:56:41;;;;;;;5.05;2.40;;;14.70;96.00;;;;;;5033006;28;20072;-45
2023/07/07 02:59:08;;;;;;;6.65;2.30;;;14.70;96.30;;;;;;5033584;28;20047;-50
2023/07/07 03:01:34;;;;;;;5.30;2.20;;;14.60;96.20;;;;;;5034629;28;20048;-49
2023/07/07 03:04:01;;;;;;;3.95;2.53;;;14.60;95.90;;;;;;5034192;28;20428;-47
2023/07/07 03:06:28;;;;;;;5.20;2.80;;;14.60;95.90;;;;;;5049628;28;20072;-45
2023/07/07 03:08:55;;;;;;;4.55;2.35;;;14.60;95.90;;;;;;5033006;28;20044;-50
2023/07/07 03:11:23;;;;;;;7.30;2.88;;;14.60;95.90;;;;;;5033110;28;20049;-48
2023/07/07 03:13:52;;;;;;;4.05;2.17;;;14.60;95.90;;;;;;5049502;28;20531;-44
2023/07/07 03:16:23;;;;;;;5.68;2.42;;;14.60;95.80;;;;;;5032982;28;20041;-48
2023/07/07 03:18:57;;;;;;;4.60;2.47;;;14.60;95.80;;;;;;5049710;28;20045;-50
2023/07/07 03:21:25;;;;;;;3.97;2.50;;;14.60;96.10;;;;;;5033202;28;20080;-47
2023/07/07 03:23:59;;;;;;;4.53;2.40;;;14.60;96.00;;;;;;5049541;28;20073;-48
2023/07/07 03:26:26;;;;;;;4.72;2.88;;;14.60;96.20;;;;;;5032681;28;20045;-46
2023/07/07 03:28:55;;;;;;;5.50;2.67;;;14.50;96.10;;;;;;5049389;28;20179;-45
2023/07/07 03:31:25;;;;;;;5.55;2.47;;;14.50;96.00;;;;;;5032516;28;20051;-44
2023/07/07 03:33:56;;;;;;;4.90;2.40;;;14.50;96.50;;;;;;5032720;28;20524;-45
2023/07/07 03:36:23;;;;;;;4.30;2.45;;;14.40;96.30;;;;;;5049369;28;20045;-45
2023/07/07 03:38:51;;;;;;;5.53;2.58;;;14.40;96.20;;;;;;5032458;28;20038;-49
2023/07/07 03:41:18;;;;;;;3.80;2.50;;;14.40;96.20;;;;;;5049195;28;20050;-48
2023/07/07 03:43:45;;;;;;;5.40;2.30;;;14.40;96.70;;;;;;5049279;28;20564;-50
2023/07/07 03:46:13;;;;;;;4.85;2.65;;;14.30;96.70;;;;;;5032389;28;20456;-50
2023/07/07 03:48:40;;;;;;;5.68;2.33;;;14.30;96.40;;;;;;5049030;28;20041;-46
2023/07/07 03:51:07;;;;;;;4.65;2.22;;;14.30;96.40;;;;;;5049144;28;20038;-49
2023/07/07 03:53:34;;;;;;;5.72;2.45;;;14.30;96.60;;;;;;5032056;28;20037;-47
2023/07/07 03:56:01;;;;;;;5.28;2.40;;;14.30;96.60;;;;;;5033698;28;20501;-49
2023/07/07 03:58:29;;;;;;;4.97;2.30;;;14.20;96.50;;;;;;5032253;28;20504;-45
2023/07/07 04:00:56;;;;;;;4.72;2.53;;;14.30;96.80;;;;;;5033960;28;20049;-46
2023/07/07 04:03:24;;;;;;;5.57;2.20;;;14.20;96.40;;;;;;5048763;28;20107;-46
2023/07/07 04:05:51;;;;;;;4.28;2.40;;;14.20;96.50;;;;;;5032291;28;20136;-49
2023/07/07 04:08:27;;;;;;;4.18;2.30;;;14.10;96.50;;;;;;5032356;28;20041;-48
2023/07/07 04:10:53;;;;;;;3.50;2.22;;;14.10;96.70;;;;;;5033818;28;20582;-47
2023/07/07 04:13:21;;;;;;;5.07;2.30;;;14.00;96.80;;;;;;5032591;28;20163;-51
2023/07/07 04:15:47;;;;;;;3.83;2.22;;;14.00;96.90;;;;;;5048898;28;20099;-47
2023/07/07 04:18:15;;;;;;;5.50;2.22;;;14.00;96.90;;;;;;5032316;28;20049;-46
2023/07/07 04:20:42;;;;;;;7.10;3.00;;;14.00;96.90;;;;;;5049182;28;20510;-47
2023/07/07 04:23:09;;;;;;;4.20;2.13;;;14.10;97.00;;;;;;5033491;28;20507;-45
2023/07/07 04:25:36;;;;;;;4.78;2.33;;;14.10;97.10;;;;;;5033676;28;20120;-49
2023/07/07 04:28:03;;;;;;;3.78;2.50;;;14.10;97.10;;;;;;5033714;28;20042;-45
2023/07/07 04:30:30;;;;;;;6.43;2.47;;;14.10;97.10;;;;;;5033286;28;20068;-48
2023/07/07 04:32:57;;;;;;;4.00;2.38;;;14.10;97.10;;;;;;5033162;28;20038;-44
2023/07/07 04:35:23;;;;;;;4.72;2.53;;;14.10;97.30;;;;;;5033527;28;20116;-47
2023/07/07 04:37:50;;;;;;;5.22;2.42;;;14.10;97.60;;;;;;5033188;28;20045;-45
2023/07/07 04:40:17;;;;;;;4.95;2.60;;;14.10;97.50;;;;;;5048734;28;20562;-51
2023/07/07 04:42:44;;;;;;;4.25;2.40;;;14.20;97.20;;;;;;5033044;28;20112;-44
2023/07/07 04:45:10;;;;;;;4.65;2.30;;;14.20;97.30;;;;;;5033133;28;20045;-50
2023/07/07 04:47:37;;;;;;;5.40;2.72;;;14.30;97.30;;;;;;5033525;28;20044;-45
2023/07/07 04:50:04;;;;;;;5.10;2.30;;;14.40;97.20;;;;;;5033064;28;20038;-45
2023/07/07 04:52:31;;;;;;;5.20;2.45;;;14.50;97.20;;;;;;5032894;28;20437;-44
2023/07/07 04:54:58;;;;;;;8.15;2.55;;;14.60;97.10;;;;;;5032848;28;20045;-46
2023/07/07 04:57:24;;;;;;;4.35;2.13;;;14.70;97.00;;;;;;5032640;28;20523;-46
2023/07/07 04:59:51;;;;;;;3.92;2.72;;;14.90;96.70;;;;;;5033171;28;20100;-49
2023/07/07 05:02:22;;;;;;;6.05;2.65;;;15.00;96.70;;;;;;5033217;28;20136;-49
2023/07/07 05:04:49;;;;;;;5.90;2.50;;;15.10;96.40;;;;;;5033324;28;20465;-49
2023/07/07 05:07:16;;;;;;;3.65;2.25;;;15.20;96.40;;;;;;5033097;28;20045;-50
2023/07/07 05:09:43;;;;;;;6.38;2.50;;;15.40;96.20;;;;;;5033188;28;20042;-47
2023/07/07 05:12:10;;;;;;;5.35;2.22;;;15.50;96.00;;;;;;5033394;28;20030;-48
2023/07/07 05:14:36;;;;;;;3.88;2.20;;;15.60;96.10;;;;;;5033090;28;20083;-48
2023/07/07 05:17:03;;;;;;;4.85;2.47;;;15.70;95.90;;;;;;5033065;28;20045;-47
2023/07/07 05:19:30;;;;;;;6.50;2.67;;;15.80;95.40;;;;;;5033106;28;20041;-51
2023/07/07 05:21:57;;;;;;;3.25;2.25;;;15.80;95.50;;;;;;5035209;28;20052;-51
2023/07/07 05:24:24;;;;;;;4.40;2.25;;;15.90;95.50;;;;;;5036628;28;20049;-46
2023/07/07 05:26:50;;;;;;;4.47;2.25;;;16.00;95.20;;;;;;5036338;28;20049;-47
2023/07/07 05:29:17;;;;;;;5.78;2.30;;;16.10;95.30;;;;;;5036671;28;20060;-50
2023/07/07 05:31:44;;;;;;;6.15;2.20;;;16.20;94.90;;;;;;5036102;28;20049;-49
2023/07/07 05:34:11;;;;;;;5.35;2.28;;;16.30;94.80;;;;;;5036416;28;20080;-47
2023/07/07 05:36:38;;;;;;;4.68;2.33;;;16.40;94.60;;;;;;5035314;28;20064;-52
2023/07/07 05:39:06;;;;;;;6.95;2.53;;;16.50;94.50;;;;;;5036398;28;20052;-47
2023/07/07 05:41:33;;;;;;;4.70;2.17;;;16.50;94.80;;;;;;5036392;28;20050;-48
2023/07/07 05:44:00;;;;;;;4.90;2.10;;;16.60;94.50;;;;;;5036191;28;20433;-47
2023/07/07 05:46:26;;;;;;;5.70;2.60;;;16.70;94.30;;;;;;5035918;28;20067;-49
2023/07/07 05:48:53;;;;;;;6.75;2.50;;;16.80;94.40;;;;;;5036506;28;20092;-51
2023/07/07 05:51:20;;;;;;;4.43;2.20;;;16.90;94.20;;;;;;5035993;28;20041;-54
2023/07/07 05:53:47;;;;;;;4.47;2.28;;;17.00;94.10;;;;;;5036253;28;20053;-47
2023/07/07 05:56:14;;;;;;;6.07;2.50;;;17.10;94.00;;;;;;5035468;28;20062;-47
2023/07/07 05:58:41;;;;;;;4.15;2.20;;;17.20;93.90;;;;;;5035855;28;20042;-50
2023/07/07 06:01:10;;;;;;;4.65;1.90;;;17.20;93.70;;;;;;5036019;28;20037;-46
2023/07/07 06:03:37;;;;;;;3.35;1.95;;;17.30;93.60;;;;;;5036103;28;20423;-46
2023/07/07 06:06:04;;;;;;;3.40;2.15;;;17.50;93.20;;;;;;5035957;28;20046;-52
2023/07/07 06:08:31;;;;;;;5.88;2.05;;;17.50;93.10;;;;;;5035715;28;20065;-50
2023/07/07 06:10:59;;;;;;;5.15;2.38;;;17.60;93.10;;;;;;5035803;28;20056;-44
2023/07/07 06:13:28;;;;;;;5.85;2.20;;;17.60;93.10;;;;;;5035366;28;20128;-49
2023/07/07 06:15:55;;;;;;;5.70;2.30;;;17.70;93.10;;;;;;5035567;28;20068;-47
2023/07/07 06:18:22;;;;;;;5.75;2.40;;;17.70;93.00;;;;;;5035453;28;20473;-49
2023/07/07 06:20:49;;;;;;;5.30;2.25;;;17.70;92.90;;;;;;5035750;28;20103;-48
2023/07/07 06:23:15;;;;;;;5.40;2.00;;;17.70;92.90;;;;;;5035373;28;20489;-46
2023/07/07 06:25:42;;;;;;;5.38;2.20;;;17.70;92.90;;;;;;5035293;28;20037;-50
2023/07/07 06:28:09;;;;;;;4.95;2.25;;;17.60;92.70;;;;;;5035642;28;20052;-46
2023/07/07 06:30:36;;;;;;;3.80;2.28;;;17.60;93.00;;;;;;5035646;28;20465;-44
2023/07/07 06:33:02;;;;;;;4.60;2.30;;;17.70;93.10;;;;;;5034152;28;20480;-48
2023/07/07 06:35:30;;;;;;;7.60;2.50;;;17.60;93.30;;;;;;5034956;28;20045;-45
2023/07/07 06:37:56;;;;;;;4.65;2.50;;;17.60;93.50;;;;;;5035241;28;20041;-44
2023/07/07 06:40:23;;;;;;;6.15;2.78;;;17.60;93.50;;;;;;5035075;28;20042;-49
2023/07/07 06:42:53;;;;;;;4.88;2.40;;;17.60;93.90;;;;;;5035181;28;20495;-45
2023/07/07 06:45:20;;;;;;;4.95;2.42;;;17.60;94.00;;;;;;5035007;28;20037;-46
2023/07/07 06:47:46;;;;;;;4.07;2.22;;;17.70;94.20;;;;;;5035370;28;20516;-47
2023/07/07 06:50:13;;;;;;;5.95;2.80;;;17.70;94.20;;;;;;5034892;28;20044;-52
2023/07/07 06:52:40;;;;;;;7.35;2.72;;;17.70;94.40;;;;;;5034478;28;20043;-47
2023/07/07 06:55:07;;;;;;;5.93;2.90;;;17.70;94.30;;;;;;5034750;28;20037;-51
2023/07/07 06:57:33;;;;;;;6.40;3.28;;;17.70;94.40;;;;;;5034590;28;20117;-45
2023/07/07 07:00:00;;;;;;;8.70;3.35;;;17.70;94.50;;;;;;5034509;28;20041;-46
2023/07/07 07:02:27;;;;;;;6.10;2.63;;;17.80;94.70;;;;;;5034415;28;20037;-48
2023/07/07 07:04:54;;;;;;;5.78;3.05;;;17.80;94.90;;;;;;5034524;28;20539;-47
2023/07/07 07:07:20;;;;;;;8.55;3.08;;;17.80;94.80;;;;;;5034704;28;20041;-52
2023/07/07 07:09:47;;;;;;;8.02;3.05;;;17.90;95.00;;;;;;5033344;28;20107;-52
2023/07/07 07:12:14;;;;;;;11.15;3.50;;;17.90;95.00;;;;;;5034718;28;20047;-47
2023/07/07 07:14:41;;;;;;;8.75;3.25;;;17.90;95.20;;;;;;5034362;28;20041;-46
2023/07/07 07:17:08;;;;;;;6.20;2.80;;;18.00;95.20;;;;;;5034703;28;20045;-52
2023/07/07 07:19:35;;;;;;;6.82;3.00;;;18.00;95.10;;;;;;5034576;28;20132;-45
2023/07/07 07:22:01;;;;;;;9.32;3.22;;;18.00;95.20;;;;;;5034156;28;20045;-50
2023/07/07 07:24:28;;;;;;;8.48;3.38;;;18.10;95.20;;;;;;5034209;28;20049;-44
2023/07/07 07:26:55;;;;;;;9.60;2.95;;;18.20;95.50;;;;;;5033867;28;20034;-48
2023/07/07 07:29:22;;;;;;;9.00;3.20;;;18.20;95.40;;;;;;5033815;28;20045;-44
2023/07/07 07:31:49;;;;;;;8.95;3.33;;;18.20;95.30;;;;;;5033964;28;20049;-44
2023/07/07 07:34:16;;;;;;;8.38;2.92;;;18.30;95.40;;;;;;5033965;28;20041;-43
2023/07/07 07:36:42;;;;;;;9.35;2.92;;;18.40;95.40;;;;;;5033933;28;20499;-45
2023/07/07 07:39:09;;;;;;;6.13;2.90;;;18.40;95.60;;;;;;5034335;28;20401;-46
2023/07/07 07:41:36;;;;;;;8.18;3.40;;;18.40;95.60;;;;;;5034261;28;20396;-50
2023/07/07 07:44:03;;;;;;;5.32;2.85;;;18.50;95.70;;;;;;5032153;28;20401;-45
2023/07/07 07:46:29;;;;;;;7.80;3.45;;;18.60;95.70;;;;;;5033776;28;20045;-48
2023/07/07 07:48:56;;;;;;;8.60;3.40;;;18.60;95.40;;;;;;5033825;28;20500;-45
2023/07/07 07:51:23;;;;;;;8.23;3.03;;;18.70;95.50;;;;;;5033879;28;20117;-44
2023/07/07 07:54:03;;;;;;;9.68;3.45;;;18.80;95.60;;;;;;5033613;28;20045;-45
2023/07/07 07:56:29;;;;;;;6.82;3.00;;;18.80;95.70;;;;;;5033575;28;20065;-46
2023/07/07 07:58:56;;;;;;;6.68;3.08;;;18.80;95.60;;;;;;5033701;28;20033;-45
2023/07/07 08:01:23;;;;;;;7.15;2.80;;;18.90;95.80;;;;;;5033602;28;20045;-45
2023/07/07 08:03:50;;;;;;;5.07;2.90;;;19.00;95.70;;;;;;5033652;28;20437;-46
2023/07/07 08:06:17;;;;;;;7.38;3.20;;;19.10;95.60;;;;;;5033607;28;20046;-51
2023/07/07 08:08:43;;;;;;;9.18;3.15;;;19.20;95.60;;;;;;5033877;28;20481;-49
2023/07/07 08:11:10;;;;;;;6.05;2.97;;;19.20;95.50;;;;;;5033424;28;20125;-52
2023/07/07 08:13:37;;;;;;;6.03;2.90;;;19.30;95.70;;;;;;5033600;28;20057;-52
2023/07/07 08:16:06;;;;;;;6.10;2.60;;;19.40;95.50;;;;;;5033508;28;20050;-45
2023/07/07 08:18:33;;;;;;;7.40;2.88;;;19.50;95.60;;;;;;5033742;28;20129;-48
2023/07/07 08:21:00;;;;;;;6.68;3.00;;;19.50;95.60;;;;;;5033396;28;20052;-46
2023/07/07 08:23:27;;;;;;;7.53;2.97;;;19.50;95.50;;;;;;5028745;28;20045;-46
2023/07/07 08:25:53;;;;;;;6.78;2.38;;;19.70;95.30;;;;;;5033211;28;20041;-45
2023/07/07 08:28:23;;;;;;;7.03;2.90;;;19.80;95.00;;;;;;5032431;28;20484;-44
2023/07/07 08:30:50;;;;;;;4.95;2.72;;;19.80;94.90;;;;;;5032257;28;20038;-45
2023/07/07 08:33:17;;;;;;;6.30;2.97;;;19.90;94.60;;;;;;5032454;28;20037;-45
2023/07/07 08:35:43;;;;;;;7.10;2.90;;;19.90;94.40;;;;;;5033002;28;20072;-45
2023/07/07 08:38:10;;;;;;;7.13;2.72;;;19.90;94.50;;;;;;5033396;28;20443;-52
2023/07/07 08:40:37;;;;;;;9.32;2.75;;;19.90;94.50;;;;;;5033462;28;20046;-47
2023/07/07 08:43:04;;;;;;;5.95;2.80;;;19.90;94.60;;;;;;5033252;28;20041;-49
2023/07/07 08:45:31;;;;;;;6.18;2.75;;;20.00;94.40;;;;;;5033493;28;20453;-46
2023/07/07 08:47:58;;;;;;;6.40;2.80;;;20.00;94.50;;;;;;5033448;28;20040;-48
2023/07/07 08:50:25;;;;;;;7.22;2.80;;;20.10;94.40;;;;;;5033520;28;20045;-50
2023/07/07 08:52:57;;;;;;;8.50;2.90;;;20.30;94.10;;;;;;5032985;28;20041;-47
2023/07/07 08:55:24;;;;;;;7.60;2.92;;;20.30;94.20;;;;;;5028991;28;20048;-46
2023/07/07 08:57:51;;;;;;;5.88;2.85;;;20.40;94.40;;;;;;5035860;28;20091;-54
2023/07/07 09:00:18;;;;;;;5.30;3.10;;;20.50;93.80;;;;;;5035869;28;20047;-47
2023/07/07 09:02:45;;;;;;;6.35;2.88;;;20.60;93.80;;;;;;5036490;28;20057;-48
2023/07/07 09:05:12;;;;;;;5.65;3.03;;;20.60;93.60;;;;;;5036271;28;20050;-50
2023/07/07 09:07:39;;;;;;;7.53;3.03;;;20.70;93.70;;;;;;5034574;28;20508;-50
2023/07/07 09:10:06;;;;;;;6.15;3.40;;;20.70;93.50;;;;;;5035978;28;20662;-47
2023/07/07 09:12:33;;;;;;;5.30;3.00;;;20.70;93.60;;;;;;5035366;28;20048;-51
2023/07/07 09:14:59;;;;;;;7.68;3.03;;;20.60;93.80;;;;;;5036082;28;20056;-48
2023/07/07 09:17:26;;;;;;;8.77;3.13;;;20.70;93.80;;;;;;5036231;28;20114;-48
2023/07/07 09:19:53;;;;;;;11.40;3.20;;;20.80;93.60;;;;;;5035977;28;20053;-47
2023/07/07 09:22:20;;;;;;;10.07;2.90;;;20.90;93.40;;;;;;5035879;28;20384;-45
2023/07/07 09:24:47;;;;;;;7.35;3.50;;;21.00;93.50;;;;;;5034859;28;20425;-46
2023/07/07 09:27:13;;;;;;;6.30;2.83;;;21.00;93.70;;;;;;5035681;28;20042;-46
2023/07/07 09:29:41;;;;;;;7.53;3.05;;;21.10;93.70;;;;;;5035852;28;20065;-50
2023/07/07 09:32:08;;;;;;;6.30;2.63;;;21.20;93.50;;;;;;5032962;28;20515;-48
2023/07/07 09:34:35;;;;;;;15.57;3.30;;;21.30;93.50;;;;;;5035638;28;20045;-49
2023/07/07 09:37:01;;;;;;;5.28;3.00;;;21.30;93.50;;;;;;5035755;28;20046;-45
2023/07/07 09:39:28;;;;;;;6.82;2.60;;;21.40;93.50;;;;;;5035932;28;20044;-47
2023/07/07 09:41:55;;;;;;;5.63;2.85;;;21.40;93.20;;;;;;5035316;28;20128;-49
2023/07/07 09:44:22;;;;;;;4.97;2.90;;;21.50;93.30;;;;;;5035615;28;20055;-50
2023/07/07 09:46:48;;;;;;;6.07;2.95;;;21.60;93.10;;;;;;5035393;28;20037;-45
2023/07/07 09:49:15;;;;;;;10.02;2.80;;;21.60;93.10;;;;;;5034393;28;20051;-46
2023/07/07 09:51:42;;;;;;;8.27;2.80;;;21.70;93.20;;;;;;5035195;28;20045;-47
2023/07/07 09:54:09;;;;;;;5.32;2.42;;;21.90;92.80;;;;;;5035264;28;20037;-51
2023/07/07 09:56:35;;;;;;;6.97;2.75;;;22.00;92.30;;;;;;5035025;28;20057;-46
2023/07/07 09:59:05;;;;;;;7.30;2.92;;;22.10;92.20;;;;;;5035536;28;20049;-52
2023/07/07 10:01:32;;;;;;;6.57;2.90;;;22.10;91.90;;;;;;5035226;28;20065;-49
2023/07/07 10:03:59;;;;;;;5.95;2.40;;;22.10;91.90;;;;;;5035083;28;20045;-47
2023/07/07 10:06:26;;;;;;;8.40;2.60;;;22.20;92.10;;;;;;5037312;28;20040;-51
2023/07/07 10:08:53;;;;;;;4.90;2.67;;;22.20;92.20;;;;;;5032169;28;20084;-47
2023/07/07 10:11:20;;;;;;;6.55;2.67;;;22.30;92.40;;;;;;5035151;28;20044;-46
2023/07/07 10:13:50;;;;;;;4.95;2.85;;;22.40;92.00;;;;;;5035300;28;20033;-50
2023/07/07 10:16:16;;;;;;;5.53;2.75;;;22.50;91.90;;;;;;5035076;28;20472;-52
2023/07/07 10:18:43;;;;;;;7.60;2.80;;;22.70;91.50;;;;;;5051039;28;20468;-47
2023/07/07 10:21:19;;;;;;;6.43;2.60;;;22.80;91.30;;;;;;5034276;28;20057;-48
2023/07/07 10:23:46;;;;;;;4.50;2.80;;;22.90;91.20;;;;;;5035656;28;20469;-47
2023/07/07 10:26:13;;;;;;;6.85;2.90;;;22.90;91.20;;;;;;5035447;28;20103;-51
2023/07/07 10:28:40;;;;;;;6.78;2.80;;;23.00;91.10;;;;;;5035615;28;20116;-50
2023/07/07 10:31:07;;;;;;;8.05;2.80;;;23.10;90.60;;;;;;5035597;28;20033;-50
2023/07/07 10:33:34;;;;;;;5.43;2.50;;;23.20;90.80;;;;;;5035194;28;20033;-50
2023/07/07 10:36:00;;;;;;;5.63;2.88;;;23.30;90.70;;;;;;5035157;28;20375;-49
2023/07/07 10:38:30;;;;;;;5.47;2.80;;;23.40;91.00;;;;;;5035541;28;20042;-50
2023/07/07 10:41:07;;;;;;;4.65;2.38;;;23.40;90.60;;;;;;5035116;28;20048;-49
2023/07/07 10:43:34;;;;;;;7.13;2.85;;;23.40;90.40;;;;;;5034726;28;20034;-50
2023/07/07 10:46:00;;;;;;;5.85;2.63;;;23.50;90.20;;;;;;5035156;28;20049;-46
2023/07/07 10:48:27;;;;;;;8.18;2.67;;;23.60;90.20;;;;;;5034954;28;20113;-51
2023/07/07 10:50:54;;;;;;;5.53;2.78;;;23.60;90.00;;;;;;5034521;28;20044;-44
2023/07/07 10:53:21;;;;;;;7.75;3.33;;;23.70;90.10;;;;;;5034913;28;20441;-49
2023/07/07 10:55:49;;;;;;;6.82;2.95;;;23.90;90.20;;;;;;5034335;28;20041;-51
2023/07/07 10:58:16;;;;;;;8.88;2.80;;;24.00;90.10;;;;;;5034873;28;20077;-45
2023/07/07 11:00:43;;;;;;;6.00;2.90;;;24.10;89.50;;;;;;5034946;28;20041;-48
2023/07/07 11:03:10;;;;;;;6.40;2.90;;;24.10;89.20;;;;;;5034884;28;20064;-50
2023/07/07 11:05:39;;;;;;;6.35;2.80;;;24.10;89.20;;;;;;5034618;28;20076;-46
2023/07/07 11:08:20;;;;;;;5.80;3.13;;;24.10;89.20;;;;;;5034739;28;20045;-47
2023/07/07 11:10:47;;;;;;;7.57;3.10;;;24.30;89.10;;;;;;5034446;28;20072;-45
2023/07/07 11:13:14;;;;;;;4.82;2.75;;;24.30;89.50;;;;;;5034280;28;20440;-52
2023/07/07 11:15:41;;;;;;;6.07;2.85;;;24.40;88.30;;;;;;5033294;28;20038;-45
2023/07/07 11:18:07;;;;;;;5.00;3.05;;;24.40;88.60;;;;;;5032503;28;20121;-44
2023/07/07 11:20:34;;;;;;;4.70;2.97;;;24.40;88.60;;;;;;5032763;28;20049;-45
2023/07/07 11:23:01;;;;;;;6.75;3.20;;;24.50;88.20;;;;;;5032581;28;20480;-46
2023/07/07 11:25:27;;;;;;;6.68;3.22;;;24.50;88.00;;;;;;5030589;28;20052;-48
2023/07/07 11:27:55;;;;;;;5.10;3.08;;;24.70;86.90;;;;;;5033270;28;20045;-51
2023/07/07 11:30:22;;;;;;;6.00;3.10;;;24.80;86.40;;;;;;5032909;28;20048;-49
2023/07/07 11:32:49;;;;;;;4.68;3.03;;;24.80;85.70;;;;;;5033375;28;20041;-47
2023/07/07 11:35:16;;;;;;;5.40;3.35;;;24.80;86.00;;;;;;5028720;28;20041;-47
2023/07/07 11:37:43;;;;;;;5.68;3.33;;;24.90;85.10;;;;;;5033001;28;20041;-48
2023/07/07 11:40:10;;;;;;;9.50;3.25;;;24.90;85.10;;;;;;5029354;28;20087;-49
2023/07/07 11:42:37;;;;;;;5.95;3.03;;;25.00;84.80;;;;;;5030300;28;20372;-48
2023/07/07 11:45:04;;;;;;;5.13;3.13;;;25.00;85.40;;;;;;5033127;28;20547;-51
2023/07/07 11:47:31;;;;;;;4.55;3.03;;;25.00;85.00;;;;;;5032726;28;20073;-48
2023/07/07 11:49:57;;;;;;;7.28;3.17;;;25.00;85.00;;;;;;5032558;28;20037;-50
2023/07/07 11:52:24;;;;;;;5.95;3.25;;;25.10;85.50;;;;;;5033181;28;20400;-53
2023/07/07 11:54:51;;;;;;;5.10;3.45;;;25.20;85.30;;;;;;5033401;28;20041;-47
2023/07/07 11:57:18;;;;;;;6.78;3.45;;;25.20;85.40;;;;;;5033629;28;20396;-46
2023/07/07 11:59:45;;;;;;;7.32;3.30;;;25.30;84.40;;;;;;5033396;28;20072;-47
2023/07/07 12:02:12;;;;;;;7.20;4.15;;;25.50;84.40;;;;;;5032825;28;20055;-49
2023/07/07 12:04:39;;;;;;;9.15;3.80;;;25.50;83.30;;;;;;5032461;28;20054;-47
2023/07/07 12:07:06;;;;;;;7.45;3.83;;;25.60;83.90;;;;;;5031026;28;20435;-50
2023/07/07 12:09:33;;;;;;;4.38;3.55;;;25.60;84.10;;;;;;5032884;28;20045;-52
2023/07/07 12:12:03;;;;;;;5.38;3.70;;;25.70;82.60;;;;;;5032797;28;20033;-51
2023/07/07 12:14:30;;;;;;;7.28;3.80;;;25.70;81.70;;;;;;5032342;28;20044;-50
2023/07/07 12:16:57;;;;;;;5.93;3.88;;;25.70;81.30;;;;;;5032076;28;20041;-50
2023/07/07 12:19:24;;;;;;;5.78;3.47;;;25.60;82.90;;;;;;5032908;28;20041;-51
2023/07/07 12:21:51;;;;;;;6.25;3.67;;;25.70;82.40;;;;;;5032833;28;20362;-51
2023/07/07 12:24:17;;;;;;;5.85;3.58;;;25.80;82.30;;;;;;5031888;28;20116;-47
2023/07/07 12:26:44;;;;;;;7.40;4.05;;;25.80;82.30;;;;;;5031297;28;20050;-51
2023/07/07 12:29:11;;;;;;;5.50;3.85;;;25.90;81.60;;;;;;5032107;28;20053;-47
2023/07/07 12:31:38;;;;;;;6.95;4.03;;;26.00;80.30;;;;;;5036207;28;20116;-47
2023/07/07 12:34:05;;;;;;;11.80;3.97;;;26.00;79.40;;;;;;5035936;28;20073;-50
2023/07/07 12:36:32;;;;;;;6.22;3.60;;;26.20;78.90;;;;;;5036672;28;20120;-48
2023/07/07 12:39:02;;;;;;;5.60;3.90;;;26.30;78.10;;;;;;5036508;28;20037;-51
2023/07/07 12:41:30;;;;;;;7.15;3.70;;;26.30;78.70;;;;;;5036701;28;20042;-52
2023/07/07 12:43:56;;;;;;;6.32;4.20;;;26.30;77.90;;;;;;5036453;28;20041;-52
2023/07/07 12:46:23;;;;;;;5.30;3.63;;;26.30;78.60;;;;;;5036373;28;20396;-53